Time;durP1;ratioP1;P1;durP2;ratioP2;P2;SDS_P1;SDS_P2;PMS_P1;PMS_P2;Temp;Humidity;BMP_temperature;BMP_pressure;BME280_temperature;BME280_humidity;BME280_pressure;Samples;Min_cycle;Max_cycle;Signal;HPM_P1;HPM_P2
2022/10/22 00:01:40;;;;;;;6.30;4.18;;;13.00;99.90;;;;;;5006734;28;20117;-85
2022/10/22 00:04:06;;;;;;;13.65;4.25;;;12.90;99.90;;;;;;5008402;28;20039;-86
2022/10/22 00:06:32;;;;;;;16.10;4.00;;;12.80;99.90;;;;;;5009460;28;20049;-85
2022/10/22 00:08:58;;;;;;;17.23;3.90;;;12.90;99.90;;;;;;4988137;28;20032;-86
2022/10/22 00:11:23;;;;;;;9.85;4.15;;;12.60;99.90;;;;;;4993160;28;20033;-86
2022/10/22 00:13:49;;;;;;;10.90;3.08;;;13.10;99.90;;;;;;4985515;28;20121;-86
2022/10/22 00:16:15;;;;;;;5.65;4.30;;;12.60;99.90;;;;;;5007333;28;20045;-85
2022/10/22 00:18:41;;;;;;;6.47;4.68;;;12.50;99.90;;;;;;4996981;28;20128;-86
2022/10/22 00:21:07;;;;;;;11.00;5.15;;;13.50;99.90;;;;;;4989967;28;20073;-85
2022/10/22 00:23:33;;;;;;;8.60;5.15;;;12.60;99.90;;;;;;5007774;28;20120;-85
2022/10/22 00:25:58;;;;;;;9.05;5.70;;;12.60;99.90;;;;;;4996746;28;20399;-86
2022/10/22 00:28:24;;;;;;;10.25;5.50;;;12.60;99.90;;;;;;5009741;28;20046;-87
2022/10/22 00:30:58;;;;;;;10.80;5.72;;;12.00;99.90;;;;;;4994045;28;20444;-86
2022/10/22 00:33:24;;;;;;;9.65;5.38;;;12.60;99.90;;;;;;5011114;28;20401;-86
2022/10/22 00:35:49;;;;;;;16.52;3.80;;;13.20;99.90;;;;;;4992464;28;20073;-87
2022/10/22 00:38:15;;;;;;;8.00;4.72;;;12.40;99.90;;;;;;5010730;28;20080;-85
2022/10/22 00:40:41;;;;;;;10.23;5.43;;;12.30;99.90;;;;;;4993982;28;20094;-86
2022/10/22 00:43:13;;;;;;;10.85;5.60;;;12.40;99.90;;;;;;4994249;28;20063;-86
2022/10/22 00:45:39;;;;;;;9.00;4.88;;;12.40;99.90;;;;;;5007782;28;20033;-86
2022/10/22 00:48:10;;;;;;;12.18;4.70;;;12.40;99.90;;;;;;5010368;28;20046;-86
2022/10/22 00:50:55;;;;;;;17.17;5.03;;;12.40;99.90;;;;;;4993480;28;20128;-86
2022/10/22 00:53:28;;;;;;;9.30;6.53;;;12.70;99.90;;;;;;4997172;28;20048;-87
2022/10/22 00:55:54;;;;;;;9.48;6.30;;;12.40;99.90;;;;;;5003389;28;20123;-86
2022/10/22 00:58:27;;;;;;;10.65;5.07;;;12.30;99.90;;;;;;5004712;28;20513;-87
2022/10/22 01:00:53;;;;;;;12.23;5.22;;;12.40;99.90;;;;;;5007319;28;20044;-87
2022/10/22 01:03:19;;;;;;;18.90;6.65;;;12.30;99.90;;;;;;5011638;28;20546;-86
2022/10/22 01:06:03;;;;;;;10.30;5.78;;;12.30;99.90;;;;;;5014106;28;20045;-88
2022/10/22 01:08:54;;;;;;;11.20;6.47;;;12.30;99.90;;;;;;5001698;28;20860;-86
2022/10/22 01:11:58;;;;;;;15.10;7.63;;;12.30;99.90;;;;;;5011093;28;20056;-86
2022/10/22 01:14:50;;;;;;;11.82;6.85;;;12.30;99.90;;;;;;4999823;28;20129;-86
2022/10/22 01:17:46;;;;;;;9.93;6.47;;;12.40;99.90;;;;;;4992784;28;20033;-86
2022/10/22 01:20:43;;;;;;;9.60;7.32;;;12.30;99.90;;;;;;5013955;28;20109;-86
2022/10/22 01:23:43;;;;;;;13.50;6.90;;;12.40;99.90;;;;;;4974752;28;20048;-86
2022/10/22 01:26:25;;;;;;;8.70;6.90;;;12.40;99.90;;;;;;4991299;28;20033;-86
2022/10/22 01:29:09;;;;;;;9.98;7.95;;;12.50;99.90;;;;;;4993960;28;20026;-86
2022/10/22 01:31:40;;;;;;;12.50;7.35;;;12.20;99.90;;;;;;4998449;28;20386;-86
2022/10/22 01:34:08;;;;;;;11.98;7.40;;;12.60;99.90;;;;;;5002325;28;20045;-87
2022/10/22 01:36:36;;;;;;;12.27;6.75;;;12.50;99.90;;;;;;5000645;28;20037;-87
2022/10/22 01:39:04;;;;;;;12.98;7.40;;;13.10;99.90;;;;;;5010075;28;20486;-86
2022/10/22 01:41:33;;;;;;;9.85;7.38;;;12.60;99.90;;;;;;4992228;28;20118;-87
2022/10/22 01:43:59;;;;;;;10.73;7.38;;;12.60;99.90;;;;;;5016252;28;20449;-86
2022/10/22 01:46:28;;;;;;;12.30;7.68;;;12.60;99.90;;;;;;4992665;28;20095;-86
2022/10/22 01:49:16;;;;;;;12.05;7.70;;;12.60;99.90;;;;;;4998213;28;20036;-86
2022/10/22 01:52:18;;;;;;;10.15;7.07;;;12.70;99.90;;;;;;4995979;28;20041;-86
2022/10/22 01:55:38;;;;;;;13.00;7.55;;;12.70;99.90;;;;;;5008966;28;20045;-86
2022/10/22 01:58:29;;;;;;;11.32;8.10;;;12.80;99.90;;;;;;5003419;28;20060;-85
2022/10/22 02:01:14;;;;;;;15.32;7.57;;;12.70;99.90;;;;;;4999444;28;20045;-86
2022/10/22 02:04:01;;;;;;;18.83;8.05;;;12.80;99.90;;;;;;4995290;28;20044;-87
2022/10/22 02:06:31;;;;;;;15.98;8.75;;;12.80;99.90;;;;;;4994662;28;20048;-86
2022/10/22 02:09:02;;;;;;;11.90;7.63;;;12.80;99.90;;;;;;4993790;28;20076;-86
2022/10/22 02:11:28;;;;;;;12.23;7.43;;;12.80;99.90;;;;;;5009367;28;20087;-86
2022/10/22 02:13:58;;;;;;;12.55;7.88;;;12.80;99.90;;;;;;5008355;28;20068;-87
2022/10/22 02:16:33;;;;;;;10.00;7.97;;;13.40;99.90;;;;;;5010487;28;20045;-86
2022/10/22 02:19:04;;;;;;;16.40;8.90;;;12.80;99.90;;;;;;4994428;28;20033;-86
2022/10/22 02:21:30;;;;;;;10.75;7.50;;;13.10;99.90;;;;;;4992359;28;20038;-87
2022/10/22 02:23:56;;;;;;;27.17;9.13;;;12.90;99.90;;;;;;5009518;28;20042;-86
2022/10/22 02:26:40;;;;;;;14.63;8.18;;;13.00;99.90;;;;;;4995820;28;20301;-86
2022/10/22 02:29:41;;;;;;;16.08;7.90;;;12.90;99.90;;;;;;4990240;28;20040;-87
2022/10/22 02:32:11;;;;;;;15.32;7.78;;;12.80;99.90;;;;;;4997300;28;20041;-85
2022/10/22 02:34:36;;;;;;;13.32;7.55;;;12.80;99.90;;;;;;4990630;28;20084;-86
2022/10/22 02:37:03;;;;;;;13.70;7.93;;;13.00;99.90;;;;;;4993768;28;20446;-88
2022/10/22 02:39:30;;;;;;;14.35;8.02;;;12.80;99.90;;;;;;4991697;28;20053;-87
2022/10/22 02:41:56;;;;;;;15.05;9.00;;;12.80;99.90;;;;;;5012633;28;20044;-86
2022/10/22 02:44:23;;;;;;;10.23;7.75;;;13.10;99.90;;;;;;4990215;28;20069;-86
2022/10/22 02:46:49;;;;;;;13.32;8.25;;;12.70;99.90;;;;;;5007786;28;20068;-86
2022/10/22 02:49:15;;;;;;;18.25;8.00;;;12.80;99.90;;;;;;5002638;28;20037;-87
2022/10/22 02:51:40;;;;;;;13.38;9.38;;;12.70;99.90;;;;;;4992051;28;20641;-85
2022/10/22 02:54:06;;;;;;;11.00;8.45;;;12.70;99.90;;;;;;5010986;28;20114;-86
2022/10/22 02:56:32;;;;;;;14.63;8.45;;;12.70;99.90;;;;;;4992115;28;20088;-86
2022/10/22 02:58:58;;;;;;;16.15;8.32;;;12.70;99.90;;;;;;4993453;28;20037;-85
2022/10/22 03:01:23;;;;;;;11.65;8.82;;;12.70;99.90;;;;;;4991002;28;20088;-86
2022/10/22 03:03:49;;;;;;;12.15;8.82;;;12.70;99.90;;;;;;5006414;28;21437;-85
2022/10/22 03:06:14;;;;;;;14.68;8.70;;;12.70;99.90;;;;;;4991422;28;20080;-85
2022/10/22 03:08:40;;;;;;;18.10;8.55;;;12.80;99.90;;;;;;4992578;28;20061;-85
2022/10/22 03:11:06;;;;;;;12.00;7.90;;;12.70;99.90;;;;;;5010575;28;20043;-85
2022/10/22 03:13:32;;;;;;;11.85;8.27;;;13.70;99.90;;;;;;4993148;28;20046;-85
2022/10/22 03:15:57;;;;;;;18.98;7.75;;;13.20;99.90;;;;;;5003963;28;20422;-85
2022/10/22 03:18:23;;;;;;;17.23;9.23;;;12.60;99.90;;;;;;4997947;28;20091;-84
2022/10/22 03:20:48;;;;;;;14.82;8.98;;;12.60;99.90;;;;;;5008855;28;20044;-85
2022/10/22 03:23:18;;;;;;;11.88;8.55;;;12.60;99.90;;;;;;4991408;28;20497;-85
2022/10/22 03:25:47;;;;;;;14.40;8.52;;;12.80;99.90;;;;;;4984098;28;20049;-85
2022/10/22 03:28:14;;;;;;;11.93;8.07;;;12.60;99.90;;;;;;4989650;28;20049;-86
2022/10/22 03:30:39;;;;;;;13.38;8.93;;;12.60;99.90;;;;;;4995558;28;20138;-85
2022/10/22 03:33:08;;;;;;;10.50;9.15;;;12.50;99.90;;;;;;5007753;28;20434;-85
2022/10/22 03:35:41;;;;;;;13.55;8.60;;;12.50;99.90;;;;;;5008809;28;20041;-85
2022/10/22 03:38:06;;;;;;;14.18;7.88;;;13.10;99.90;;;;;;5008297;28;20044;-84
2022/10/22 03:40:32;;;;;;;16.42;9.10;;;12.50;99.90;;;;;;5011888;28;20132;-84
2022/10/22 03:42:57;;;;;;;14.07;8.98;;;12.50;99.90;;;;;;5011535;28;20034;-85
2022/10/22 03:45:23;;;;;;;13.05;8.63;;;12.50;99.90;;;;;;5004298;28;20121;-86
2022/10/22 03:47:49;;;;;;;19.17;10.25;;;12.50;99.90;;;;;;5006646;28;20044;-85
2022/10/22 03:50:16;;;;;;;15.30;8.70;;;12.50;99.90;;;;;;4988520;28;20037;-85
2022/10/22 03:52:41;;;;;;;22.95;9.85;;;12.80;99.90;;;;;;4995176;28;20033;-86
2022/10/22 03:55:08;;;;;;;13.60;9.20;;;12.50;99.90;;;;;;5006719;28;20076;-85
2022/10/22 03:57:33;;;;;;;14.82;9.32;;;12.50;99.90;;;;;;4990821;28;20046;-85
2022/10/22 03:59:59;;;;;;;16.17;9.23;;;12.50;99.90;;;;;;4995200;28;20251;-85
2022/10/22 04:02:25;;;;;;;11.23;9.43;;;12.50;99.90;;;;;;4985979;28;20034;-85
2022/10/22 04:04:50;;;;;;;18.40;8.85;;;12.50;99.90;;;;;;5009368;28;20042;-85
2022/10/22 04:07:16;;;;;;;15.45;9.95;;;12.40;99.90;;;;;;5008810;28;20120;-86
2022/10/22 04:09:41;;;;;;;15.38;9.13;;;12.40;99.90;;;;;;5003615;28;20077;-85
2022/10/22 04:12:08;;;;;;;16.65;9.93;;;12.70;99.90;;;;;;4992523;28;20499;-85
2022/10/22 04:14:34;;;;;;;16.75;10.38;;;12.40;99.90;;;;;;5000881;28;20067;-85
2022/10/22 04:16:59;;;;;;;21.10;10.85;;;12.50;99.90;;;;;;4995535;28;20087;-85
2022/10/22 04:19:28;;;;;;;15.52;10.60;;;12.40;99.90;;;;;;5006631;28;20083;-85
2022/10/22 04:21:53;;;;;;;15.98;10.57;;;12.40;99.90;;;;;;5012877;28;20044;-85
2022/10/22 04:24:19;;;;;;;16.20;9.82;;;12.40;99.90;;;;;;5008996;28;20041;-85
2022/10/22 04:27:32;;;;;;;16.45;11.02;;;12.40;99.90;;;;;;5015853;28;20025;-85
2022/10/22 04:30:05;;;;;;;20.45;11.88;;;12.50;99.90;;;;;;4959954;28;20130;-84
2022/10/22 04:32:33;;;;;;;19.83;9.65;;;12.40;99.90;;;;;;5014017;28;20041;-85
2022/10/22 04:34:58;;;;;;;21.13;11.18;;;12.50;99.90;;;;;;5003111;28;20112;-85
2022/10/22 04:37:24;;;;;;;14.50;10.68;;;12.50;99.90;;;;;;4994908;28;20041;-85
2022/10/22 04:39:49;;;;;;;19.38;11.13;;;12.50;99.90;;;;;;4995346;28;20047;-85
2022/10/22 04:42:15;;;;;;;14.07;10.75;;;12.70;99.90;;;;;;5000883;28;20045;-85
2022/10/22 04:45:35;;;;;;;15.30;10.45;;;12.50;99.90;;;;;;4994917;28;20541;-85
2022/10/22 04:48:18;;;;;;;19.48;10.98;;;12.40;99.90;;;;;;5023379;28;20041;-85
2022/10/22 04:50:44;;;;;;;13.45;9.77;;;12.50;99.90;;;;;;4997477;28;20036;-85
2022/10/22 04:53:09;;;;;;;17.15;10.88;;;12.40;99.90;;;;;;4994884;28;20038;-85
2022/10/22 04:55:35;;;;;;;16.00;11.07;;;12.50;99.90;;;;;;5010186;28;20128;-85
2022/10/22 04:58:01;;;;;;;15.25;10.70;;;12.50;99.90;;;;;;5007643;28;20112;-85
2022/10/22 05:00:30;;;;;;;16.33;11.23;;;12.50;99.90;;;;;;5001287;28;20038;-85
2022/10/22 05:02:57;;;;;;;15.30;10.38;;;12.50;99.90;;;;;;4991455;28;20062;-85
2022/10/22 05:05:22;;;;;;;16.55;11.10;;;12.70;99.90;;;;;;5000334;28;20036;-87
2022/10/22 05:07:50;;;;;;;13.18;10.23;;;12.50;99.90;;;;;;4997850;28;20040;-85
2022/10/22 05:10:16;;;;;;;16.45;11.15;;;12.50;99.90;;;;;;5013780;28;20042;-85
2022/10/22 05:12:41;;;;;;;15.30;10.23;;;12.50;99.90;;;;;;5012676;28;20041;-85
2022/10/22 05:15:08;;;;;;;12.98;9.60;;;12.50;99.90;;;;;;4997388;28;20693;-85
2022/10/22 05:17:41;;;;;;;15.90;10.20;;;12.50;99.90;;;;;;5009422;28;20069;-85
2022/10/22 05:20:07;;;;;;;13.05;9.50;;;12.50;99.90;;;;;;5002368;28;20030;-87
2022/10/22 05:22:33;;;;;;;15.50;9.73;;;12.40;99.90;;;;;;4991796;28;20041;-85
2022/10/22 05:24:59;;;;;;;13.10;9.80;;;12.40;99.90;;;;;;4995372;28;20089;-86
2022/10/22 05:27:25;;;;;;;13.05;10.07;;;12.40;99.90;;;;;;4994644;28;20029;-85
2022/10/22 05:29:52;;;;;;;13.32;9.48;;;12.50;99.90;;;;;;5009306;28;20052;-85
2022/10/22 05:32:17;;;;;;;13.90;10.43;;;12.50;99.90;;;;;;4994830;28;20034;-87
2022/10/22 05:34:43;;;;;;;16.90;9.82;;;12.50;99.90;;;;;;5007635;28;20162;-84
2022/10/22 05:37:08;;;;;;;14.63;10.48;;;12.50;99.90;;;;;;5014591;28;20194;-87
2022/10/22 05:39:39;;;;;;;13.70;9.00;;;12.60;99.90;;;;;;4996635;28;20049;-86
2022/10/22 05:42:05;;;;;;;16.23;10.45;;;12.50;99.90;;;;;;4996620;28;20080;-85
2022/10/22 05:44:30;;;;;;;16.70;10.32;;;13.00;99.90;;;;;;4994008;28;20081;-87
2022/10/22 05:46:56;;;;;;;20.50;10.05;;;12.50;99.90;;;;;;5001311;28;20060;-85
2022/10/22 05:49:22;;;;;;;11.73;9.88;;;12.50;99.90;;;;;;4987429;28;20120;-85
2022/10/22 05:51:50;;;;;;;13.13;9.05;;;13.00;99.90;;;;;;4989948;28;21025;-86
2022/10/22 05:54:18;;;;;;;20.30;9.10;;;12.50;99.90;;;;;;4993851;28;20041;-85
2022/10/22 05:56:45;;;;;;;13.35;9.25;;;12.50;99.90;;;;;;4996116;28;20383;-86
2022/10/22 05:59:10;;;;;;;12.40;8.85;;;12.60;99.90;;;;;;4996150;28;20543;-86
2022/10/22 06:01:38;;;;;;;16.77;9.45;;;12.60;99.90;;;;;;4983422;28;20255;-85
2022/10/22 06:04:14;;;;;;;17.95;9.40;;;12.60;99.90;;;;;;4993166;28;20045;-85
2022/10/22 06:06:46;;;;;;;13.95;9.63;;;12.60;99.90;;;;;;4997690;28;20033;-85
2022/10/22 06:09:23;;;;;;;13.23;9.05;;;12.60;99.90;;;;;;4990339;28;20034;-85
2022/10/22 06:11:53;;;;;;;14.15;8.77;;;12.60;99.90;;;;;;5011594;28;20173;-86
2022/10/22 06:14:19;;;;;;;13.77;8.68;;;13.20;99.90;;;;;;5011901;28;20647;-85
2022/10/22 06:16:45;;;;;;;12.93;9.05;;;12.60;99.90;;;;;;5010981;28;20029;-86
2022/10/22 06:19:12;;;;;;;10.60;7.85;;;12.60;99.90;;;;;;4991904;28;20119;-86
2022/10/22 06:21:38;;;;;;;15.20;9.75;;;12.60;99.90;;;;;;4991767;28;20499;-85
2022/10/22 06:24:04;;;;;;;13.57;8.75;;;12.60;99.90;;;;;;4992422;28;20074;-85
2022/10/22 06:26:30;;;;;;;12.10;9.43;;;12.40;99.90;;;;;;5004778;28;20037;-85
2022/10/22 06:28:56;;;;;;;15.07;7.93;;;12.60;99.90;;;;;;4993017;28;20037;-85
2022/10/22 06:31:23;;;;;;;11.18;7.60;;;12.60;99.90;;;;;;4998931;28;20529;-85
2022/10/22 06:33:49;;;;;;;16.08;8.55;;;12.60;99.90;;;;;;4987474;28;20500;-85
2022/10/22 06:36:22;;;;;;;14.35;7.35;;;12.60;99.90;;;;;;4998733;28;20041;-89
2022/10/22 06:38:51;;;;;;;13.07;8.20;;;12.70;99.90;;;;;;5013774;28;20038;-87
2022/10/22 06:41:24;;;;;;;14.40;6.70;;;12.80;99.90;;;;;;5001543;28;20049;-88
2022/10/22 06:44:05;;;;;;;14.10;7.43;;;13.20;99.90;;;;;;5002338;28;20052;-89
2022/10/22 06:46:39;;;;;;;13.65;6.70;;;12.60;99.90;;;;;;5002153;28;20129;-91
2022/10/22 06:49:05;;;;;;;11.15;6.25;;;13.50;99.90;;;;;;4994711;28;20113;-87
2022/10/22 06:51:31;;;;;;;9.40;6.82;;;12.70;99.90;;;;;;4994047;28;20116;-88
2022/10/22 07:12:22;;;;;;;12.95;5.95;;;13.20;99.90;;;;;;5104437;23;20430;-85
2022/10/22 07:14:48;;;;;;;12.77;5.43;;;13.20;99.90;;;;;;4960366;28;20034;-85
2022/10/22 07:32:15;;;;;;;11.10;4.80;;;13.60;99.90;;;;;;4946058;28;20050;-85
2022/10/22 07:34:42;;;;;;;13.80;4.90;;;13.70;99.90;;;;;;4953994;28;20047;-83
2022/10/22 07:37:07;;;;;;;8.55;4.43;;;13.70;99.90;;;;;;4934473;28;20039;-84
2022/10/22 07:39:33;;;;;;;13.10;4.97;;;13.80;99.90;;;;;;4966295;28;20038;-83
2022/10/22 07:41:59;;;;;;;20.65;5.68;;;13.80;99.90;;;;;;4969291;28;20034;-84
2022/10/22 07:44:25;;;;;;;15.43;5.38;;;13.80;99.90;;;;;;4934100;28;20043;-84
2022/10/22 07:46:50;;;;;;;19.85;5.47;;;13.80;99.90;;;;;;4966262;28;20039;-83
2022/10/22 07:49:16;;;;;;;10.88;4.05;;;13.90;99.90;;;;;;4951064;28;20740;-83
2022/10/22 07:51:41;;;;;;;12.00;5.05;;;13.90;99.90;;;;;;4944113;28;20499;-83
2022/10/22 07:54:07;;;;;;;7.05;4.68;;;13.90;99.90;;;;;;4952380;28;20054;-84
2022/10/22 07:56:33;;;;;;;9.55;4.50;;;14.00;99.90;;;;;;4954006;28;20750;-84
2022/10/22 07:58:58;;;;;;;15.45;4.80;;;13.90;99.90;;;;;;4941013;28;20130;-84
2022/10/22 08:01:24;;;;;;;9.55;4.25;;;13.90;99.90;;;;;;4952724;28;20039;-83
2022/10/22 08:03:49;;;;;;;16.77;5.70;;;13.90;99.90;;;;;;4950508;28;20047;-85
2022/10/22 08:06:16;;;;;;;17.35;4.72;;;14.00;99.90;;;;;;4948954;28;20040;-84
2022/10/22 08:08:44;;;;;;;12.57;4.65;;;14.00;99.90;;;;;;4970324;28;20046;-86
2022/10/22 08:11:10;;;;;;;7.25;3.85;;;14.10;99.90;;;;;;4940212;28;20039;-84
2022/10/22 08:17:18;;;;;;;12.23;4.20;;;14.10;99.90;;;;;;4971636;28;20034;-84
2022/10/22 08:24:21;;;;;;;7.78;3.97;;;14.30;99.90;;;;;;4968775;28;20057;-85
2022/10/22 08:30:48;;;;;;;10.18;3.83;;;14.40;99.90;;;;;;4890851;29;20056;-84
2022/10/22 08:33:50;;;;;;;8.85;3.60;;;14.50;99.90;;;;;;4853737;29;20153;-86
2022/10/22 08:40:51;;;;;;;10.40;3.10;;;14.60;99.90;;;;;;4834939;29;20538;-85
2022/10/22 08:55:03;;;;;;;11.50;3.63;;;14.90;99.90;;;;;;4857014;29;20074;-86
2022/10/22 08:58:24;;;;;;;14.63;3.58;;;15.00;99.90;;;;;;4894502;29;20062;-85
2022/10/22 09:05:21;;;;;;;12.55;3.22;;;15.20;99.90;;;;;;4894381;29;20063;-85
2022/10/22 09:07:49;;;;;;;16.10;3.57;;;15.20;99.90;;;;;;4901469;28;20059;-85
2022/10/22 09:10:18;;;;;;;12.50;2.97;;;15.20;99.90;;;;;;4955785;28;20294;-85
2022/10/22 09:12:44;;;;;;;7.55;2.25;;;15.30;99.90;;;;;;4983174;28;20050;-85
2022/10/22 09:15:17;;;;;;;11.70;3.72;;;15.30;99.90;;;;;;4940466;28;20125;-84
2022/10/22 09:17:43;;;;;;;8.85;2.47;;;15.90;99.90;;;;;;4952744;28;20089;-84
2022/10/22 09:20:34;;;;;;;12.77;3.65;;;15.40;99.90;;;;;;4958482;28;20125;-86
2022/10/22 09:23:23;;;;;;;9.45;2.72;;;15.50;99.90;;;;;;4955560;28;20045;-85
2022/10/22 09:25:50;;;;;;;11.00;3.15;;;15.60;99.90;;;;;;4971211;28;20484;-86
2022/10/22 09:28:16;;;;;;;7.53;2.45;;;15.60;99.90;;;;;;4976407;28;20038;-87
2022/10/22 09:30:42;;;;;;;10.50;3.00;;;15.90;99.90;;;;;;4967863;28;20435;-85
2022/10/22 09:33:26;;;;;;;10.70;3.75;;;15.70;99.90;;;;;;4972460;28;20042;-85
2022/10/22 09:36:02;;;;;;;14.35;2.83;;;16.50;99.90;;;;;;4953639;28;20075;-85
2022/10/22 09:38:29;;;;;;;;;;;15.70;99.90;;;;;;4950921;28;20042;-85
2022/10/22 09:41:02;;;;;;;10.55;3.45;;;15.70;99.90;;;;;;4961096;28;20013;-84
2022/10/22 09:43:27;;;;;;;8.45;2.50;;;15.80;99.90;;;;;;4967517;28;20078;-85
2022/10/22 09:45:59;;;;;;;12.52;2.80;;;15.70;99.90;;;;;;4942185;28;20081;-84
2022/10/22 09:48:33;;;;;;;11.35;3.28;;;15.70;99.90;;;;;;4956860;28;20058;-85
2022/10/22 09:51:19;;;;;;;13.10;2.85;;;15.80;99.90;;;;;;4951845;28;20070;-85
2022/10/22 09:53:48;;;;;;;14.82;3.35;;;15.80;99.90;;;;;;4953681;28;20510;-84
2022/10/22 09:56:27;;;;;;;9.55;3.00;;;15.90;99.90;;;;;;4950782;28;20503;-85
2022/10/22 09:58:56;;;;;;;19.00;3.33;;;15.80;99.90;;;;;;4985593;28;20113;-85
2022/10/22 10:01:33;;;;;;;14.30;3.35;;;15.90;99.90;;;;;;4957309;28;20059;-85
2022/10/22 10:04:12;;;;;;;17.45;3.50;;;15.80;99.90;;;;;;4939240;28;20070;-85
2022/10/22 10:06:49;;;;;;;10.15;3.25;;;15.80;99.90;;;;;;4953322;28;20039;-85
2022/10/22 10:09:19;;;;;;;18.65;3.22;;;15.70;99.90;;;;;;4956994;28;20137;-85
2022/10/22 10:12:00;;;;;;;19.73;4.10;;;15.80;99.90;;;;;;4974924;28;20703;-85
2022/10/22 10:14:55;;;;;;;13.15;3.10;;;15.80;99.90;;;;;;4963369;28;20082;-85
2022/10/22 10:17:34;;;;;;;11.02;3.67;;;15.90;99.90;;;;;;4949186;28;20043;-85
2022/10/22 10:20:07;;;;;;;9.07;2.88;;;15.90;99.90;;;;;;4950366;28;20043;-85
2022/10/22 10:22:41;;;;;;;11.40;3.75;;;15.90;99.90;;;;;;4952607;28;20055;-85
2022/10/22 10:25:19;;;;;;;9.93;4.07;;;15.90;99.90;;;;;;4970496;28;20782;-85
2022/10/22 10:27:59;;;;;;;14.48;3.75;;;16.00;99.90;;;;;;4972752;28;20046;-85
2022/10/22 10:30:25;;;;;;;12.98;3.90;;;16.10;99.90;;;;;;4953163;28;20501;-85
2022/10/22 10:33:26;;;;;;;11.55;4.03;;;16.90;99.90;;;;;;4937672;28;20039;-86
2022/10/22 10:36:15;;;;;;;11.90;2.88;;;16.30;99.90;;;;;;4890457;28;20050;-85
2022/10/22 10:42:29;;;;;;;8.57;2.83;;;16.30;99.90;;;;;;4954061;28;20086;-84
2022/10/22 10:45:16;;;;;;;12.63;3.42;;;16.30;99.90;;;;;;4950799;28;20082;-83
2022/10/22 10:47:53;;;;;;;10.18;3.55;;;16.30;99.90;;;;;;4988239;28;20123;-84
2022/10/22 10:50:39;;;;;;;11.55;2.83;;;16.20;99.90;;;;;;4949751;28;20046;-82
2022/10/22 10:54:00;;;;;;;13.93;3.63;;;16.20;99.90;;;;;;4939478;28;20043;-84
2022/10/22 10:56:51;;;;;;;11.63;3.67;;;16.20;99.90;;;;;;4910614;29;20123;-83
2022/10/22 10:59:37;;;;;;;12.80;3.38;;;16.10;99.90;;;;;;4954668;28;20118;-84
2022/10/22 11:02:43;;;;;;;16.50;3.58;;;16.10;99.90;;;;;;4941097;28;20043;-83
2022/10/22 11:05:59;;;;;;;9.70;3.83;;;16.10;99.90;;;;;;4896893;29;20168;-84
2022/10/22 11:13:15;;;;;;;9.13;3.30;;;15.50;99.90;;;;;;5148384;23;20112;-85
2022/10/22 11:16:31;;;;;;;7.70;3.15;;;16.00;99.90;;;;;;4950458;28;20118;-85
2022/10/22 11:19:18;;;;;;;12.77;4.70;;;16.00;99.90;;;;;;4900518;29;20039;-85
2022/10/22 11:22:31;;;;;;;12.10;4.25;;;16.00;99.90;;;;;;4847433;29;20047;-86
2022/10/22 11:59:31;;;;;;;8.90;2.88;;;16.40;99.90;;;;;;4984495;28;20117;-83
2022/10/22 12:01:57;;;;;;;15.50;3.72;;;16.40;99.90;;;;;;5001722;28;20058;-81
2022/10/22 12:04:40;;;;;;;12.57;3.10;;;16.30;99.90;;;;;;4979502;28;20035;-86
2022/10/22 12:07:50;;;;;;;11.15;2.92;;;16.30;99.90;;;;;;4982373;28;20117;-84
2022/10/22 12:11:02;;;;;;;8.88;2.88;;;16.20;99.90;;;;;;4976261;28;20579;-82
2022/10/22 12:14:21;;;;;;;8.80;2.50;;;16.30;99.90;;;;;;4965645;28;20038;-84
2022/10/22 12:16:50;;;;;;;11.48;3.20;;;16.20;99.90;;;;;;4951384;28;20129;-85
2022/10/22 12:19:24;;;;;;;11.40;3.08;;;16.20;99.90;;;;;;4969495;28;20038;-86
2022/10/22 12:22:28;;;;;;;13.43;3.58;;;16.10;99.90;;;;;;4973128;28;20045;-84
2022/10/22 12:25:05;;;;;;;9.45;2.65;;;16.10;99.90;;;;;;4986584;28;20061;-85
2022/10/22 12:27:59;;;;;;;11.10;3.10;;;16.40;99.90;;;;;;4990966;28;20096;-85
2022/10/22 12:30:38;;;;;;;11.30;3.03;;;16.10;99.90;;;;;;4990335;28;20040;-86
2022/10/22 12:33:06;;;;;;;9.25;3.22;;;16.00;99.90;;;;;;4987236;28;20061;-84
2022/10/22 12:35:48;;;;;;;13.35;2.95;;;16.00;99.90;;;;;;4989081;28;20030;-86
2022/10/22 12:38:25;;;;;;;10.90;2.63;;;16.00;99.90;;;;;;4991898;28;20046;-86
2022/10/22 12:40:56;;;;;;;10.82;3.55;;;16.10;99.90;;;;;;4984970;28;20050;-84
2022/10/22 12:43:29;;;;;;;8.75;2.55;;;16.10;99.90;;;;;;4971279;28;20059;-83
2022/10/22 12:45:58;;;;;;;8.15;2.50;;;16.10;99.90;;;;;;4984855;28;20045;-86
2022/10/22 12:48:47;;;;;;;7.20;2.58;;;16.10;99.90;;;;;;4972397;28;20559;-85
2022/10/22 12:52:01;;;;;;;10.63;2.67;;;16.20;99.90;;;;;;4991808;28;20042;-87
2022/10/22 12:55:29;;;;;;;10.30;2.45;;;16.20;99.90;;;;;;5001430;28;20039;-86
2022/10/22 12:58:18;;;;;;;11.40;2.67;;;16.20;99.90;;;;;;4942752;28;20054;-85
2022/10/22 13:00:46;;;;;;;10.20;3.22;;;16.20;99.90;;;;;;4948481;28;20452;-84
2022/10/22 13:03:43;;;;;;;11.00;2.40;;;16.60;99.90;;;;;;4982716;28;20042;-84
2022/10/22 13:10:26;;;;;;;6.85;1.80;;;16.20;99.90;;;;;;4992053;28;20081;-85
2022/10/22 13:13:02;;;;;;;7.65;1.77;;;16.20;99.90;;;;;;4990739;28;20053;-84
2022/10/22 13:15:44;;;;;;;8.35;1.77;;;16.30;99.90;;;;;;4988177;28;20113;-84
2022/10/22 13:18:32;;;;;;;8.07;2.10;;;16.20;99.90;;;;;;4986456;28;20046;-84
2022/10/22 13:43:18;;;;;;;5.60;0.65;;;16.70;99.90;;;;;;4986685;28;20033;-85
2022/10/22 13:46:42;;;;;;;5.70;0.88;;;16.80;99.90;;;;;;4909158;29;20068;-85
2022/10/22 13:49:18;;;;;;;4.13;0.88;;;16.80;99.90;;;;;;4890327;29;20044;-86
2022/10/22 13:52:37;;;;;;;5.35;0.85;;;17.20;99.90;;;;;;4914019;29;20127;-85
2022/10/22 13:55:14;;;;;;;8.13;0.70;;;16.90;99.90;;;;;;4900522;29;20040;-86
2022/10/22 13:57:40;;;;;;;5.78;0.70;;;16.90;99.90;;;;;;4962388;28;20050;-86
2022/10/22 14:00:08;;;;;;;11.40;2.15;;;17.00;99.90;;;;;;4984469;28;20031;-86
2022/10/22 14:02:36;;;;;;;19.25;1.45;;;17.00;99.90;;;;;;5006006;28;20111;-86
2022/10/22 14:05:03;;;;;;;34.67;1.95;;;17.00;99.90;;;;;;4981151;28;20073;-87
2022/10/22 14:07:31;;;;;;;6.28;1.00;;;17.00;99.90;;;;;;4989801;28;20042;-87
2022/10/22 14:09:57;;;;;;;6.45;0.70;;;17.00;99.90;;;;;;4981950;28;20057;-86
2022/10/22 14:12:27;;;;;;;9.45;1.00;;;17.00;99.90;;;;;;4978278;28;20136;-86
2022/10/22 14:14:53;;;;;;;11.68;1.73;;;17.10;99.90;;;;;;4969358;28;20043;-86
2022/10/22 14:17:21;;;;;;;18.35;2.03;;;17.20;99.90;;;;;;4979799;28;20034;-86
2022/10/22 14:19:49;;;;;;;8.05;1.15;;;17.20;99.90;;;;;;4994708;28;20065;-85
2022/10/22 14:22:18;;;;;;;60.35;4.90;;;17.40;99.90;;;;;;4972864;28;20053;-85
2022/10/22 14:24:48;;;;;;;12.45;1.55;;;17.10;99.90;;;;;;4976230;28;20101;-85
2022/10/22 14:27:15;;;;;;;14.15;1.48;;;17.10;99.90;;;;;;4986379;28;20405;-85
2022/10/22 14:29:40;;;;;;;12.13;1.88;;;17.10;99.90;;;;;;4971957;28;20030;-85
2022/10/22 14:32:19;;;;;;;10.85;1.25;;;17.20;99.90;;;;;;4971322;28;20390;-83
2022/10/22 14:34:45;;;;;;;8.98;1.15;;;17.10;99.90;;;;;;4984944;28;20065;-84
2022/10/22 14:37:19;;;;;;;13.40;1.88;;;17.00;99.90;;;;;;4973476;28;20091;-86
2022/10/22 14:39:50;;;;;;;7.82;1.42;;;17.30;99.90;;;;;;5003739;28;20480;-82
2022/10/22 14:42:16;;;;;;;9.90;1.38;;;16.90;99.90;;;;;;4973713;28;21833;-83
2022/10/22 14:44:42;;;;;;;28.67;2.63;;;16.90;99.90;;;;;;4974327;28;20157;-87
2022/10/22 14:47:08;;;;;;;22.35;2.28;;;16.80;99.90;;;;;;4989953;28;20554;-87
2022/10/22 14:49:36;;;;;;;26.17;2.80;;;16.80;99.90;;;;;;4989740;28;20665;-84
2022/10/22 14:52:05;;;;;;;16.45;1.75;;;16.70;99.90;;;;;;4989573;28;20073;-85
2022/10/22 14:54:32;;;;;;;17.30;2.90;;;16.70;99.90;;;;;;4980747;28;20041;-87
2022/10/22 14:56:57;;;;;;;11.48;1.92;;;16.60;99.90;;;;;;4990766;28;20050;-87
2022/10/22 14:59:23;;;;;;;13.57;3.30;;;16.60;99.90;;;;;;4973694;28;20052;-88
2022/10/22 15:01:49;;;;;;;19.58;2.97;;;16.60;99.90;;;;;;5003744;28;20157;-88
2022/10/22 15:04:14;;;;;;;13.30;1.98;;;16.60;99.90;;;;;;5005498;28;20831;-87
2022/10/22 15:06:40;;;;;;;14.13;2.33;;;16.50;99.90;;;;;;4984475;28;20046;-86
2022/10/22 15:09:06;;;;;;;11.60;2.20;;;16.40;99.90;;;;;;4988890;28;20058;-87
2022/10/22 15:11:34;;;;;;;16.33;2.60;;;16.70;99.90;;;;;;4976248;28;20065;-87
2022/10/22 15:14:00;;;;;;;15.18;2.15;;;16.80;99.90;;;;;;4964677;28;20485;-86
2022/10/22 15:16:26;;;;;;;19.00;2.85;;;16.30;99.90;;;;;;4965924;28;20030;-87
2022/10/22 15:18:52;;;;;;;13.40;2.25;;;16.30;99.90;;;;;;4974001;28;20038;-87
2022/10/22 15:21:22;;;;;;;18.88;2.58;;;16.10;99.90;;;;;;4975889;28;20584;-87
2022/10/22 15:23:48;;;;;;;17.73;2.55;;;16.10;99.90;;;;;;4991694;28;20030;-85
2022/10/22 15:26:14;;;;;;;15.77;2.42;;;16.80;99.90;;;;;;4993873;28;20049;-88